Miami International Airport
KMIA : now visible

Airfield :











YOU CAN JOIN US ON...

 
LOGIN :

Register | Disclaimer

   EN    FR    IT 

 









Legend :    VFR   Marginal VFR   IFR   Intensive IFR   Very Intensive IFR
Visi :
Ceiling :
>= 8 km
>= 3000ft
5 to 8 km
1000 to 3000 ft
1500m to 5 km
500 to 1000 ft
800 to 1500m
200 to 500 ft
< 800m
< 200 ft
Symbols :   Thunderstorms  Fog  Heavy snow  Heavy precipitations  Wind > 20 kt






- Airport Elevation : 8 ft
- IATA code : MIA


KMIA - Miami International

CURRENT METAR :
  • 160753Z 27010KT 10SM FEW018 SCT100 BKN160 OVC200 21/17 A2990 RMK AO2 SLP125 T02060172

EXPIRED METARs :
  • 160653Z 24006KT 10SM FEW030 SCT100 BKN160 OVC200 21/17 A2990 RMK AO2 SLP123 T02060167
  • 160553Z 22006KT 10SM FEW030 SCT100 BKN180 OVC230 21/16 A2989 RMK AO2 SLP123 T02110156 10217 20206 58004

TAF KMIA
Valid from the 16 at 06:00 until the 17 at 12:00 UTC


160521Z 1606/1712 22007KT P6SM SCT025 BKN100
FM160800 28010KT P6SM SCT020 BKN035
TEMPO 1608/1610 SCT010 BKN020
FM161000 28015KT P6SM SCT025 BKN050
FM170200 30006KT P6SM FEW050 FEW250
KZMA FIR / North America



MET'MAP, your aeronautical weather chart ! - Copyright ORBIFLY December 2007 - Disclaimer

ORBIFLY MET'MAP TEAM :

Programming & Development : Alexandra Zaïnal
Concept & original design : Baudouin d'Aumeries
Assistance for programming : Marc-Olivier Méhu
Technical & hardware support : Manuel Goepfert

Contact : metmap@orbifly.com




SOURCES & CREDITS :

   NOAA       Earth
Advisory